Time;durP1;ratioP1;P1;durP2;ratioP2;P2;SDS_P1;SDS_P2;PMS_P1;PMS_P2;Temp;Humidity;BMP_temperature;BMP_pressure;BME280_temperature;BME280_humidity;BME280_pressure;Samples;Min_cycle;Max_cycle;Signal;HPM_P1;HPM_P2
2023/10/24 00:01:27;;;;;;;6.07;5.20;;;8.20;99.90;;;;;;5053993;28;20623;-63
2023/10/24 00:03:53;;;;;;;5.83;4.77;;;8.20;99.90;;;;;;5053704;28;20208;-63
2023/10/24 00:06:19;;;;;;;5.90;5.30;;;8.30;99.90;;;;;;5051812;28;20849;-64
2023/10/24 00:08:45;;;;;;;5.40;4.90;;;8.30;99.90;;;;;;5053757;28;20170;-65
2023/10/24 00:11:11;;;;;;;6.87;4.90;;;8.30;99.90;;;;;;5053633;28;20253;-63
2023/10/24 00:13:36;;;;;;;5.27;4.80;;;8.30;99.90;;;;;;5053454;28;20470;-66
2023/10/24 00:16:02;;;;;;;5.03;4.53;;;8.20;99.90;;;;;;5053000;28;20195;-63
2023/10/24 00:18:28;;;;;;;5.07;4.60;;;8.20;99.90;;;;;;5053526;28;20235;-63
2023/10/24 00:20:54;;;;;;;6.23;4.53;;;8.30;1.00;;;;;;5053421;28;20642;-66
2023/10/24 00:23:20;;;;;;;5.97;5.13;;;8.30;1.00;;;;;;5052360;28;20207;-63
2023/10/24 00:25:46;;;;;;;7.00;5.07;;;8.30;1.00;;;;;;5052127;28;20413;-64
2023/10/24 00:28:12;;;;;;;7.73;4.80;;;8.30;1.00;;;;;;5053478;28;21004;-67
2023/10/24 00:30:39;;;;;;;5.50;5.10;;;8.30;1.00;;;;;;5046897;28;20183;-65
2023/10/24 00:33:05;;;;;;;5.23;4.83;;;8.30;1.00;;;;;;5033071;28;20391;-63
2023/10/24 00:35:31;;;;;;;16.03;5.40;;;8.40;1.00;;;;;;5032675;28;20381;-63
2023/10/24 00:37:56;;;;;;;8.00;5.13;;;8.40;1.00;;;;;;5033048;28;21051;-64
2023/10/24 00:40:22;;;;;;;6.90;5.80;;;8.40;1.00;;;;;;5032947;28;20168;-63
2023/10/24 00:42:48;;;;;;;8.43;4.50;;;8.40;1.00;;;;;;5033445;28;20248;-63
2023/10/24 00:45:14;;;;;;;7.93;5.13;;;8.40;1.00;;;;;;5032419;28;20285;-63
2023/10/24 00:47:39;;;;;;;5.13;4.23;;;8.50;1.00;;;;;;5033062;28;20256;-64
2023/10/24 00:50:07;;;;;;;5.23;4.70;;;8.50;1.00;;;;;;5033267;28;20229;-63
2023/10/24 00:52:34;;;;;;;5.00;4.50;;;8.50;1.00;;;;;;5032872;28;20169;-63
2023/10/24 00:55:02;;;;;;;7.10;4.83;;;8.60;1.00;;;;;;5030675;28;20415;-64
2023/10/24 00:57:28;;;;;;;5.27;4.77;;;8.60;1.00;;;;;;5032472;28;20459;-67
2023/10/24 00:59:54;;;;;;;5.77;5.27;;;8.60;1.00;;;;;;5033022;28;20493;-63
2023/10/24 01:02:21;;;;;;;6.43;5.73;;;8.60;1.00;;;;;;5033141;28;20365;-64
2023/10/24 01:04:48;;;;;;;5.27;4.70;;;8.60;1.00;;;;;;5030923;28;20433;-63
2023/10/24 01:07:13;;;;;;;5.53;4.43;;;8.70;1.00;;;;;;5032638;28;20426;-64
2023/10/24 01:09:39;;;;;;;5.03;4.60;;;8.60;1.00;;;;;;5032542;28;20484;-63
2023/10/24 01:12:06;;;;;;;4.63;4.30;;;8.70;1.00;;;;;;5033065;28;20174;-63
2023/10/24 01:14:32;;;;;;;5.20;4.70;;;8.70;1.00;;;;;;5031875;28;20183;-76
2023/10/24 01:16:58;;;;;;;4.20;3.90;;;8.50;1.00;;;;;;5031271;28;20800;-64
2023/10/24 01:19:24;;;;;;;5.63;5.10;;;8.50;1.00;;;;;;5032715;28;20532;-63
2023/10/24 01:21:50;;;;;;;5.03;4.53;;;8.60;1.00;;;;;;5032748;28;20415;-65
2023/10/24 01:24:17;;;;;;;5.43;4.93;;;8.40;1.00;;;;;;5032750;28;20257;-64
2023/10/24 01:26:43;;;;;;;5.00;4.50;;;8.50;1.00;;;;;;5031916;28;20433;-65
2023/10/24 01:29:10;;;;;;;5.27;4.77;;;8.60;1.00;;;;;;5032267;28;20429;-64
2023/10/24 01:31:36;;;;;;;5.00;4.60;;;8.60;1.00;;;;;;5031635;28;20401;-64
2023/10/24 01:34:02;;;;;;;5.23;4.73;;;8.70;1.00;;;;;;5032568;28;20450;-63
2023/10/24 01:36:28;;;;;;;5.17;4.67;;;8.70;1.00;;;;;;5031322;28;20790;-64
2023/10/24 01:38:54;;;;;;;5.90;4.93;;;8.70;1.00;;;;;;5031747;28;20392;-64
2023/10/24 01:41:20;;;;;;;6.80;4.57;;;8.80;1.00;;;;;;5032874;28;20664;-64
2023/10/24 01:43:45;;;;;;;6.10;4.80;;;8.80;1.00;;;;;;5031232;28;20170;-64
2023/10/24 01:46:11;;;;;;;5.23;4.77;;;8.90;1.00;;;;;;5031348;28;20659;-65
2023/10/24 01:48:37;;;;;;;5.20;4.70;;;8.90;1.00;;;;;;5032679;28;20643;-63
2023/10/24 01:51:03;;;;;;;5.23;4.83;;;8.90;1.00;;;;;;5034471;28;20605;-65
2023/10/24 01:53:28;;;;;;;5.17;4.77;;;8.80;1.00;;;;;;5052374;28;20313;-64
2023/10/24 01:55:54;;;;;;;7.00;5.00;;;8.80;1.00;;;;;;5051042;28;20650;-64
2023/10/24 01:58:20;;;;;;;5.60;5.13;;;8.90;2.90;;;;;;5052396;28;20236;-64
2023/10/24 02:00:45;;;;;;;6.27;5.67;;;8.80;5.70;;;;;;5052456;28;20623;-67
2023/10/24 02:03:11;;;;;;;7.97;5.73;;;8.80;14.60;;;;;;5051907;28;20175;-64
2023/10/24 02:05:38;;;;;;;7.83;5.80;;;8.80;31.90;;;;;;5051150;28;20190;-65
2023/10/24 02:08:04;;;;;;;6.27;5.77;;;8.80;65.80;;;;;;5053883;28;20174;-64
2023/10/24 02:10:29;;;;;;;6.20;5.60;;;8.90;87.50;;;;;;5056039;28;20402;-65
2023/10/24 02:12:55;;;;;;;6.80;5.23;;;8.90;98.90;;;;;;5054785;28;20185;-68
2023/10/24 02:15:21;;;;;;;7.40;5.87;;;8.90;99.90;;;;;;5055118;28;20178;-66
2023/10/24 02:17:47;;;;;;;6.13;5.53;;;9.00;99.90;;;;;;5055780;28;20229;-63
2023/10/24 02:20:13;;;;;;;7.80;5.43;;;9.10;99.90;;;;;;5055777;28;20175;-68
2023/10/24 02:22:40;;;;;;;5.37;4.77;;;9.10;99.90;;;;;;5048197;28;20171;-63
2023/10/24 02:25:08;;;;;;;7.00;5.27;;;9.10;99.90;;;;;;5034931;28;20406;-65
2023/10/24 02:27:34;;;;;;;5.57;4.97;;;9.10;99.90;;;;;;5035850;28;20488;-68
2023/10/24 02:30:01;;;;;;;5.50;5.00;;;9.10;99.90;;;;;;5034591;28;20425;-63
2023/10/24 02:32:27;;;;;;;6.97;6.27;;;9.10;99.90;;;;;;5036058;28;20880;-63
2023/10/24 02:34:52;;;;;;;6.03;5.43;;;9.10;99.90;;;;;;5053515;28;20388;-68
2023/10/24 02:37:18;;;;;;;12.37;5.70;;;9.10;99.90;;;;;;5055141;28;20206;-63
2023/10/24 02:39:44;;;;;;;6.70;5.50;;;9.20;99.90;;;;;;5055627;28;20255;-65
2023/10/24 02:42:09;;;;;;;13.47;5.30;;;9.20;99.90;;;;;;5054267;28;20185;-63
2023/10/24 02:44:35;;;;;;;7.07;5.43;;;9.20;99.90;;;;;;5054554;28;20178;-64
2023/10/24 02:47:01;;;;;;;8.53;5.40;;;9.20;99.90;;;;;;5055456;28;20653;-64
2023/10/24 02:49:26;;;;;;;5.90;4.97;;;9.20;99.90;;;;;;5054016;28;20189;-64
2023/10/24 02:51:52;;;;;;;7.10;4.73;;;9.30;99.90;;;;;;5055198;28;20182;-66
2023/10/24 02:54:18;;;;;;;6.60;5.37;;;9.30;99.90;;;;;;5053822;28;20197;-63
2023/10/24 02:56:43;;;;;;;8.73;4.80;;;9.30;99.90;;;;;;5053023;28;20293;-63
2023/10/24 02:59:09;;;;;;;6.30;5.70;;;9.30;99.90;;;;;;5055096;28;20170;-64
2023/10/24 03:01:35;;;;;;;7.00;5.00;;;9.30;99.90;;;;;;5053848;28;20641;-65
2023/10/24 03:04:01;;;;;;;6.57;5.87;;;9.40;99.90;;;;;;5055068;28;20194;-63
2023/10/24 03:06:27;;;;;;;6.47;5.37;;;9.40;99.90;;;;;;5042477;28;20516;-65
2023/10/24 03:09:08;;;;;;;8.90;5.40;;;9.40;99.90;;;;;;5012017;28;20208;-63
2023/10/24 03:11:33;;;;;;;6.27;4.90;;;9.40;99.90;;;;;;5036151;28;20427;-66
2023/10/24 03:13:59;;;;;;;10.97;5.40;;;9.50;99.90;;;;;;5034513;28;20892;-64
2023/10/24 03:16:25;;;;;;;8.80;5.57;;;9.50;99.90;;;;;;5034620;28;20644;-67
2023/10/24 03:18:51;;;;;;;7.27;6.00;;;9.50;99.90;;;;;;5038093;28;20590;-63
2023/10/24 03:21:16;;;;;;;7.53;6.00;;;9.50;99.90;;;;;;5039917;28;20739;-63
2023/10/24 03:23:44;;;;;;;8.30;5.70;;;9.50;99.90;;;;;;5041290;28;20210;-63
2023/10/24 03:26:10;;;;;;;6.67;5.83;;;9.50;99.90;;;;;;5040368;28;20664;-64
2023/10/24 03:28:36;;;;;;;7.50;6.80;;;9.60;99.90;;;;;;5049576;28;20436;-63
2023/10/24 03:31:06;;;;;;;6.10;5.50;;;9.60;99.90;;;;;;5033760;28;20447;-64
2023/10/24 03:33:33;;;;;;;8.30;7.50;;;9.60;99.90;;;;;;5034515;28;20436;-64
2023/10/24 03:35:59;;;;;;;7.90;6.40;;;9.70;99.90;;;;;;5036564;28;20425;-63
2023/10/24 03:38:27;;;;;;;8.90;6.70;;;9.70;99.90;;;;;;5034315;28;20873;-63
2023/10/24 03:40:53;;;;;;;9.47;7.57;;;9.70;99.90;;;;;;5033933;28;20442;-64
2023/10/24 03:43:19;;;;;;;10.20;7.33;;;9.80;99.90;;;;;;5034109;28;21158;-64
2023/10/24 03:45:44;;;;;;;13.60;8.60;;;9.80;99.90;;;;;;5034732;28;20524;-64
2023/10/24 03:48:12;;;;;;;8.23;7.20;;;9.80;99.90;;;;;;5033040;28;20441;-63
2023/10/24 03:50:39;;;;;;;9.23;7.60;;;9.90;99.90;;;;;;5033297;28;20194;-64
2023/10/24 03:53:05;;;;;;;9.07;7.10;;;9.90;99.90;;;;;;5035836;28;20933;-64
2023/10/24 03:55:31;;;;;;;12.57;7.87;;;9.90;99.90;;;;;;5039895;28;20778;-63
2023/10/24 03:57:57;;;;;;;13.43;9.07;;;9.90;99.90;;;;;;5039229;28;20452;-64
2023/10/24 04:00:23;;;;;;;11.03;8.47;;;9.90;99.90;;;;;;5032775;28;20412;-64
2023/10/24 04:02:53;;;;;;;10.30;8.57;;;10.00;99.90;;;;;;5033946;28;20267;-63
2023/10/24 04:05:19;;;;;;;9.40;7.70;;;10.00;99.90;;;;;;5031958;28;20424;-63
2023/10/24 04:07:45;;;;;;;9.23;8.33;;;10.10;99.90;;;;;;5033205;28;20469;-64
2023/10/24 04:10:15;;;;;;;10.33;8.00;;;10.10;99.90;;;;;;5034023;28;20175;-63
2023/10/24 04:12:41;;;;;;;10.93;7.90;;;10.10;99.90;;;;;;5033240;28;20453;-65
2023/10/24 04:15:08;;;;;;;12.43;8.77;;;10.10;99.90;;;;;;5035374;28;20409;-70
2023/10/24 04:17:34;;;;;;;10.07;9.00;;;10.20;99.90;;;;;;5033501;28;20956;-66
2023/10/24 04:20:00;;;;;;;14.10;8.27;;;10.20;99.90;;;;;;5035800;28;20420;-63
2023/10/24 04:22:27;;;;;;;13.03;9.50;;;10.20;99.90;;;;;;5034063;28;20412;-64
2023/10/24 04:24:53;;;;;;;10.13;8.10;;;10.30;99.90;;;;;;5039973;28;20679;-65
2023/10/24 04:27:19;;;;;;;13.27;9.57;;;10.30;99.90;;;;;;5033430;28;20427;-64
2023/10/24 04:29:46;;;;;;;9.60;8.60;;;10.20;99.90;;;;;;5032741;28;20413;-63
2023/10/24 04:32:12;;;;;;;11.53;8.47;;;10.20;99.90;;;;;;5032766;28;20409;-66
2023/10/24 04:34:38;;;;;;;8.37;7.53;;;10.30;99.90;;;;;;5044779;28;20751;-64
2023/10/24 04:37:04;;;;;;;13.50;9.17;;;10.30;99.90;;;;;;5031481;28;20527;-73
2023/10/24 04:39:30;;;;;;;9.40;8.10;;;10.20;99.90;;;;;;5034675;28;20691;-64
2023/10/24 04:41:56;;;;;;;11.97;8.67;;;10.30;99.90;;;;;;5034843;28;20412;-63
2023/10/24 04:44:22;;;;;;;10.30;9.30;;;10.30;99.90;;;;;;5034381;28;20180;-63
2023/10/24 04:46:47;;;;;;;10.63;8.27;;;10.30;99.90;;;;;;5050417;28;20206;-63
2023/10/24 04:49:15;;;;;;;12.37;8.17;;;10.30;99.90;;;;;;5049770;28;20430;-64
2023/10/24 04:51:41;;;;;;;13.43;7.77;;;10.30;99.90;;;;;;5033207;28;20172;-63
2023/10/24 04:54:07;;;;;;;9.70;7.23;;;10.30;99.90;;;;;;5036143;28;20423;-65
2023/10/24 04:56:33;;;;;;;14.00;8.20;;;10.30;99.90;;;;;;5038135;28;20507;-67
2023/10/24 04:58:58;;;;;;;9.10;8.20;;;10.30;99.90;;;;;;5033683;28;20179;-64
2023/10/24 05:01:24;;;;;;;11.37;8.50;;;10.40;99.90;;;;;;5033047;28;20179;-63
2023/10/24 05:03:50;;;;;;;9.17;8.20;;;10.30;99.90;;;;;;5032186;28;20182;-64
2023/10/24 05:06:16;;;;;;;11.57;8.37;;;10.30;99.90;;;;;;5031700;28;20309;-64
2023/10/24 05:08:41;;;;;;;10.00;9.00;;;10.30;99.90;;;;;;5032780;28;20175;-65
2023/10/24 05:11:07;;;;;;;10.53;8.47;;;10.30;99.90;;;;;;5032486;28;20196;-63
2023/10/24 05:13:33;;;;;;;18.83;10.03;;;10.40;99.90;;;;;;5033900;28;20683;-65
2023/10/24 05:15:59;;;;;;;12.27;8.93;;;10.50;99.90;;;;;;5037799;28;20480;-63
2023/10/24 05:18:25;;;;;;;11.30;7.80;;;10.50;99.90;;;;;;5034019;28;20211;-63
2023/10/24 05:20:50;;;;;;;8.77;7.83;;;10.60;99.90;;;;;;5032764;28;20190;-63
2023/10/24 05:23:16;;;;;;;8.90;8.00;;;10.60;99.90;;;;;;5032072;28;20190;-65
2023/10/24 05:25:42;;;;;;;11.10;8.67;;;10.70;99.90;;;;;;5033935;28;20175;-64
2023/10/24 05:28:08;;;;;;;15.37;9.50;;;10.70;99.90;;;;;;5032617;28;20188;-63
2023/10/24 05:30:38;;;;;;;10.23;7.57;;;10.70;99.90;;;;;;5034923;28;21131;-65
2023/10/24 05:33:05;;;;;;;11.80;8.90;;;10.70;99.90;;;;;;5030963;28;20499;-63
2023/10/24 05:35:32;;;;;;;18.27;9.70;;;10.70;99.90;;;;;;5035204;28;20440;-63
2023/10/24 05:37:58;;;;;;;13.07;11.23;;;10.70;99.90;;;;;;5035020;28;20570;-63
2023/10/24 05:40:24;;;;;;;10.40;9.10;;;10.70;99.90;;;;;;5040914;28;20404;-65
2023/10/24 05:42:50;;;;;;;12.23;8.47;;;10.70;99.90;;;;;;5042847;28;20499;-65
2023/10/24 05:45:16;;;;;;;11.57;8.80;;;10.70;99.90;;;;;;5035052;28;20190;-63
2023/10/24 05:47:42;;;;;;;14.17;9.50;;;10.70;99.90;;;;;;5052310;28;20439;-65
2023/10/24 05:50:08;;;;;;;11.60;8.93;;;10.80;99.90;;;;;;5046843;28;20905;-64
2023/10/24 05:52:34;;;;;;;12.70;10.03;;;10.80;99.90;;;;;;5039319;28;20171;-63
2023/10/24 05:55:00;;;;;;;13.83;9.57;;;10.80;99.90;;;;;;5034268;28;20967;-64
2023/10/24 05:57:25;;;;;;;11.37;9.80;;;10.80;99.90;;;;;;5042488;28;20285;-76
2023/10/24 05:59:51;;;;;;;10.97;8.80;;;10.80;99.90;;;;;;5036390;28;20580;-64
2023/10/24 06:02:17;;;;;;;11.60;9.23;;;10.90;99.90;;;;;;5035850;28;20179;-65
2023/10/24 06:04:42;;;;;;;11.80;9.20;;;10.90;99.90;;;;;;5035178;28;20195;-63
2023/10/24 06:07:08;;;;;;;10.20;9.20;;;10.90;99.90;;;;;;5036020;28;20735;-64
2023/10/24 06:09:34;;;;;;;13.03;10.50;;;10.90;99.90;;;;;;5035635;28;20187;-65
2023/10/24 06:12:00;;;;;;;13.57;10.37;;;10.80;99.90;;;;;;5036069;28;20179;-65
2023/10/24 06:14:25;;;;;;;16.20;10.60;;;10.80;99.90;;;;;;5039446;28;20180;-64
2023/10/24 06:16:51;;;;;;;12.50;9.67;;;10.80;99.90;;;;;;5038402;28;20567;-63
2023/10/24 06:19:17;;;;;;;12.30;10.07;;;10.90;99.90;;;;;;5053141;28;20175;-65
2023/10/24 06:21:42;;;;;;;13.03;9.63;;;10.90;99.90;;;;;;5036004;28;20254;-68
2023/10/24 06:24:08;;;;;;;13.40;11.23;;;10.90;99.90;;;;;;5035323;28;20624;-63
2023/10/24 06:26:34;;;;;;;12.77;10.40;;;10.90;99.90;;;;;;5034478;28;20769;-64
2023/10/24 06:28:59;;;;;;;11.80;9.80;;;11.00;99.90;;;;;;5042005;28;20180;-63
2023/10/24 06:31:28;;;;;;;15.10;11.53;;;11.00;99.90;;;;;;5045568;28;20528;-64
2023/10/24 06:33:54;;;;;;;13.27;10.23;;;11.00;99.90;;;;;;5046431;28;20700;-64
2023/10/24 06:36:21;;;;;;;17.40;12.20;;;11.00;99.90;;;;;;5054456;28;20396;-63
2023/10/24 06:38:46;;;;;;;13.57;10.37;;;11.00;99.90;;;;;;5054304;28;20218;-63
2023/10/24 06:41:13;;;;;;;20.70;11.13;;;10.90;99.90;;;;;;5055599;28;20396;-63
2023/10/24 06:43:39;;;;;;;14.07;10.43;;;10.90;99.90;;;;;;5055474;28;20558;-64
2023/10/24 06:46:05;;;;;;;14.77;10.20;;;10.90;99.90;;;;;;5054613;28;20400;-64
2023/10/24 06:48:31;;;;;;;15.53;10.33;;;11.00;99.90;;;;;;5055095;28;20387;-64
2023/10/24 06:50:58;;;;;;;16.50;11.13;;;10.90;99.90;;;;;;5055103;28;20391;-64
2023/10/24 06:53:24;;;;;;;11.00;8.73;;;10.90;99.90;;;;;;5054254;28;20383;-63
2023/10/24 06:55:50;;;;;;;18.73;10.70;;;10.90;99.90;;;;;;5054238;28;20721;-65
2023/10/24 06:58:15;;;;;;;17.13;10.73;;;10.90;99.90;;;;;;5055077;28;20439;-64
2023/10/24 07:00:43;;;;;;;14.97;10.03;;;10.90;99.90;;;;;;5055154;28;20191;-63
2023/10/24 07:03:08;;;;;;;11.90;10.63;;;10.90;99.90;;;;;;5055273;28;20190;-63
2023/10/24 07:05:34;;;;;;;19.07;11.00;;;10.90;99.90;;;;;;5053239;28;20435;-66
2023/10/24 07:08:00;;;;;;;15.10;11.90;;;10.90;99.90;;;;;;5054426;28;20597;-67
2023/10/24 07:10:25;;;;;;;17.87;11.87;;;10.80;99.90;;;;;;5054681;28;20167;-63
2023/10/24 07:12:51;;;;;;;18.40;12.97;;;10.80;99.90;;;;;;5054940;28;20175;-64
2023/10/24 07:15:17;;;;;;;15.50;11.03;;;10.80;99.90;;;;;;5054179;28;20208;-63
2023/10/24 07:17:42;;;;;;;17.77;12.40;;;10.80;99.90;;;;;;5054611;28;20214;-64
2023/10/24 07:20:09;;;;;;;13.37;10.90;;;10.80;99.90;;;;;;5054790;28;20178;-64
2023/10/24 07:22:34;;;;;;;18.27;11.97;;;10.80;99.90;;;;;;5054547;28;20650;-64
2023/10/24 07:25:00;;;;;;;14.87;10.87;;;10.80;99.90;;;;;;5053901;28;20490;-63
2023/10/24 07:27:26;;;;;;;13.90;11.67;;;10.70;99.90;;;;;;5054275;28;20667;-63
2023/10/24 07:29:51;;;;;;;16.07;12.00;;;10.70;99.90;;;;;;5054183;28;20627;-64
2023/10/24 07:32:17;;;;;;;15.07;11.13;;;10.70;99.90;;;;;;5054665;28;20183;-64
2023/10/24 07:34:43;;;;;;;20.67;13.70;;;10.60;99.90;;;;;;5052658;28;20594;-63
2023/10/24 07:37:09;;;;;;;16.73;11.27;;;10.60;99.90;;;;;;5054260;28;20555;-63
2023/10/24 07:39:36;;;;;;;13.97;11.40;;;10.60;99.90;;;;;;5054435;28;20166;-64
2023/10/24 07:42:02;;;;;;;21.13;11.80;;;10.60;99.90;;;;;;5053006;28;20810;-70
2023/10/24 07:44:27;;;;;;;14.37;12.70;;;10.60;99.90;;;;;;5052439;28;20421;-63
2023/10/24 07:46:53;;;;;;;24.67;11.63;;;10.60;99.90;;;;;;5053216;28;20406;-63
2023/10/24 07:49:19;;;;;;;14.77;11.27;;;10.60;99.90;;;;;;5054171;28;20254;-63
2023/10/24 07:51:44;;;;;;;16.53;11.70;;;10.60;99.90;;;;;;5053206;28;20722;-64
2023/10/24 07:54:13;;;;;;;24.07;14.13;;;10.70;99.90;;;;;;5054090;28;20178;-63
2023/10/24 07:56:40;;;;;;;16.30;12.57;;;10.70;1.00;;;;;;5052881;28;20186;-63
2023/10/24 07:59:09;;;;;;;18.90;13.03;;;10.70;1.00;;;;;;5054072;28;20384;-63
2023/10/24 08:01:35;;;;;;;20.03;12.80;;;10.70;1.00;;;;;;5053733;28;20440;-67
2023/10/24 08:04:01;;;;;;;22.03;14.07;;;10.70;1.00;;;;;;5053546;28;20429;-67
2023/10/24 08:06:28;;;;;;;16.97;11.10;;;10.70;1.00;;;;;;5051532;28;20476;-64
2023/10/24 08:08:53;;;;;;;15.47;12.83;;;10.80;1.00;;;;;;5053864;28;20902;-64
2023/10/24 08:11:19;;;;;;;21.63;12.30;;;10.80;1.00;;;;;;5053925;28;20402;-64
2023/10/24 08:13:45;;;;;;;18.57;12.57;;;10.80;1.00;;;;;;5048044;28;20171;-63
2023/10/24 08:16:11;;;;;;;13.63;12.13;;;10.90;1.00;;;;;;5031787;28;20187;-63
2023/10/24 08:18:38;;;;;;;14.33;11.37;;;10.90;1.00;;;;;;5033246;28;20321;-63
2023/10/24 08:21:04;;;;;;;15.70;12.70;;;10.90;1.00;;;;;;5033794;28;20638;-63
2023/10/24 08:23:30;;;;;;;13.50;11.07;;;11.00;1.00;;;;;;5052002;28;20469;-63
2023/10/24 08:25:59;;;;;;;12.93;11.07;;;10.90;1.00;;;;;;5052721;28;20167;-64
2023/10/24 08:28:24;;;;;;;13.60;10.67;;;10.90;1.00;;;;;;5053429;28;20374;-64
2023/10/24 08:30:50;;;;;;;28.03;12.33;;;11.00;1.00;;;;;;5053616;28;20754;-63
2023/10/24 08:33:18;;;;;;;17.00;10.80;;;11.00;1.00;;;;;;5053406;28;20384;-64
2023/10/24 08:35:47;;;;;;;13.73;10.63;;;11.00;1.00;;;;;;5052378;28;20522;-64
2023/10/24 08:38:13;;;;;;;14.93;10.20;;;11.00;1.00;;;;;;5053067;28;20779;-65
2023/10/24 08:40:40;;;;;;;14.67;11.13;;;11.00;1.00;;;;;;5053244;28;20408;-63
2023/10/24 08:43:08;;;;;;;14.90;11.30;;;11.00;1.00;;;;;;5052945;28;20559;-63
2023/10/24 08:45:35;;;;;;;14.53;10.83;;;11.00;1.00;;;;;;5052438;28;20380;-64
2023/10/24 08:48:03;;;;;;;19.87;11.60;;;11.10;1.00;;;;;;5053075;28;20407;-63
2023/10/24 08:50:29;;;;;;;15.87;10.77;;;11.10;1.00;;;;;;5051873;28;20829;-71
2023/10/24 08:52:54;;;;;;;12.30;10.93;;;11.10;1.00;;;;;;5051823;28;20409;-67
2023/10/24 08:55:20;;;;;;;15.77;10.87;;;11.10;1.00;;;;;;5052221;28;20650;-63
2023/10/24 08:57:47;;;;;;;15.60;10.17;;;11.10;1.00;;;;;;5051399;28;20210;-63
2023/10/24 09:00:14;;;;;;;15.63;12.23;;;11.10;1.00;;;;;;5052740;28;20362;-65
2023/10/24 09:02:44;;;;;;;15.70;11.93;;;11.10;1.00;;;;;;5050495;28;21037;-64
2023/10/24 09:05:11;;;;;;;14.87;11.43;;;11.10;1.00;;;;;;5051465;28;20410;-63
2023/10/24 09:07:37;;;;;;;16.33;12.10;;;11.10;1.00;;;;;;5053136;28;20453;-63
2023/10/24 09:10:03;;;;;;;13.57;11.53;;;11.10;1.00;;;;;;5051879;28;20479;-63
2023/10/24 09:12:33;;;;;;;14.03;11.73;;;11.20;1.00;;;;;;5053235;28;20518;-64
2023/10/24 09:14:59;;;;;;;17.53;11.70;;;11.10;1.00;;;;;;5050678;28;20429;-63
2023/10/24 09:17:26;;;;;;;20.10;11.93;;;11.10;1.00;;;;;;5052836;28;20782;-63
2023/10/24 09:19:55;;;;;;;13.73;12.37;;;11.10;1.00;;;;;;5053296;28;20363;-63
2023/10/24 09:22:22;;;;;;;15.50;11.50;;;11.20;1.00;;;;;;5052845;28;20383;-63
2023/10/24 09:24:49;;;;;;;20.23;12.60;;;11.20;1.00;;;;;;5052097;28;20375;-64
2023/10/24 09:27:23;;;;;;;15.43;13.80;;;11.20;1.00;;;;;;5053084;28;20915;-63
2023/10/24 09:29:49;;;;;;;20.30;13.10;;;11.20;1.00;;;;;;5052792;28;20414;-62
2023/10/24 09:32:16;;;;;;;13.67;12.27;;;11.20;1.00;;;;;;5053027;28;20403;-63
2023/10/24 09:34:43;;;;;;;15.80;13.60;;;11.20;1.00;;;;;;5052070;28;20383;-63
2023/10/24 09:37:10;;;;;;;16.80;13.73;;;11.20;1.00;;;;;;5051533;28;20436;-63
2023/10/24 09:40:01;;;;;;;16.67;14.33;;;11.20;1.00;;;;;;5051179;28;20421;-63
2023/10/24 09:42:29;;;;;;;21.07;15.13;;;11.20;1.00;;;;;;5053004;28;20400;-65
2023/10/24 09:44:56;;;;;;;16.50;12.90;;;11.20;1.00;;;;;;5052027;28;20368;-64
2023/10/24 09:47:23;;;;;;;19.77;15.10;;;11.20;1.00;;;;;;5052771;28;20411;-63
2023/10/24 09:49:54;;;;;;;18.53;14.40;;;11.20;1.00;;;;;;5052580;28;20861;-63
2023/10/24 09:52:21;;;;;;;23.93;15.17;;;11.30;1.00;;;;;;5052917;28;20376;-63
2023/10/24 09:54:49;;;;;;;18.27;14.60;;;11.30;1.00;;;;;;5051767;28;20380;-63
2023/10/24 09:57:18;;;;;;;21.53;15.77;;;11.30;1.00;;;;;;5052471;28;20469;-66
2023/10/24 09:59:47;;;;;;;25.40;16.00;;;11.30;1.00;;;;;;5052449;28;20878;-63
2023/10/24 10:02:14;;;;;;;16.77;13.20;;;11.30;1.00;;;;;;5053002;28;20368;-63
2023/10/24 10:04:40;;;;;;;20.30;14.30;;;11.30;1.00;;;;;;5050477;28;20490;-63
2023/10/24 10:07:09;;;;;;;19.40;13.80;;;11.30;1.00;;;;;;5044098;28;20404;-63
2023/10/24 10:09:39;;;;;;;21.77;13.83;;;11.30;1.00;;;;;;5032884;28;20900;-63
2023/10/24 10:12:07;;;;;;;15.20;12.93;;;11.40;1.00;;;;;;5032939;28;20377;-63
2023/10/24 10:15:11;;;;;;;17.60;14.33;;;11.40;1.00;;;;;;5032072;28;20411;-64
2023/10/24 10:18:42;;;;;;;18.53;13.87;;;11.30;1.00;;;;;;5032069;28;20456;-63
2023/10/24 10:21:08;;;;;;;18.00;13.67;;;11.30;1.00;;;;;;4991550;28;20894;-64
2023/10/24 10:23:43;;;;;;;14.73;13.10;;;11.40;1.00;;;;;;5019677;28;20406;-63
2023/10/24 10:26:24;;;;;;;15.63;13.87;;;11.40;1.00;;;;;;5031397;28;20535;-63
2023/10/24 10:29:09;;;;;;;17.07;13.80;;;11.40;1.00;;;;;;5042427;28;20392;-63
2023/10/24 10:32:05;;;;;;;17.43;12.50;;;11.30;1.00;;;;;;5055843;28;20395;-63
2023/10/24 10:34:36;;;;;;;16.60;14.90;;;11.30;1.00;;;;;;5055695;28;20398;-76
2023/10/24 10:37:03;;;;;;;15.00;13.40;;;11.40;1.00;;;;;;5055582;28;20949;-63
2023/10/24 10:39:29;;;;;;;18.47;14.03;;;11.40;1.00;;;;;;5056070;28;20903;-62
2023/10/24 10:41:55;;;;;;;17.90;14.97;;;11.40;1.00;;;;;;5055836;28;20410;-63
2023/10/24 10:44:41;;;;;;;16.50;14.20;;;11.50;1.00;;;;;;5055491;28;20372;-68
2023/10/24 10:47:11;;;;;;;21.30;14.90;;;11.50;1.00;;;;;;5055901;28;20428;-63
2023/10/24 10:49:48;;;;;;;20.77;14.67;;;11.40;1.00;;;;;;5055738;28;20371;-64
2023/10/24 10:52:40;;;;;;;27.73;15.00;;;11.40;1.00;;;;;;5055971;28;20463;-63
2023/10/24 10:55:24;;;;;;;20.33;14.13;;;11.40;1.00;;;;;;5053310;28;20778;-63
2023/10/24 10:58:15;;;;;;;20.10;15.20;;;11.40;1.00;;;;;;5055523;28;20811;-63
2023/10/24 11:00:59;;;;;;;18.37;14.70;;;11.40;1.00;;;;;;5055161;28;20492;-63
2023/10/24 11:03:33;;;;;;;23.43;15.90;;;11.40;1.00;;;;;;5055634;28;20884;-64
2023/10/24 11:06:14;;;;;;;18.27;14.73;;;11.40;1.00;;;;;;5054395;28;20418;-63
2023/10/24 11:08:41;;;;;;;17.97;15.30;;;11.50;1.00;;;;;;5055511;28;20426;-63
2023/10/24 11:11:09;;;;;;;17.73;14.90;;;11.50;1.00;;;;;;5054228;28;20756;-63
2023/10/24 11:13:43;;;;;;;17.17;15.13;;;11.50;1.00;;;;;;5054822;28;20422;-64
2023/10/24 11:16:13;;;;;;;21.33;15.43;;;11.50;1.00;;;;;;5054403;28;20429;-63
2023/10/24 11:18:40;;;;;;;21.60;17.47;;;11.50;1.00;;;;;;5054886;28;20426;-63
2023/10/24 11:21:09;;;;;;;21.50;15.97;;;11.50;1.00;;;;;;5054219;28;20375;-63
2023/10/24 11:23:35;;;;;;;19.47;16.73;;;11.50;1.00;;;;;;5055262;28;20411;-64
2023/10/24 11:26:03;;;;;;;21.70;15.60;;;11.50;1.00;;;;;;5054186;28;20400;-64
2023/10/24 11:28:29;;;;;;;22.40;16.70;;;11.50;1.00;;;;;;5055030;28;20786;-63
2023/10/24 11:30:56;;;;;;;20.03;15.87;;;11.50;99.90;;;;;;5054745;28;20404;-63
2023/10/24 11:33:23;;;;;;;19.30;16.43;;;11.50;1.00;;;;;;5054915;28;20823;-63
2023/10/24 11:35:49;;;;;;;19.77;17.13;;;11.50;1.00;;;;;;5052357;28;20701;-63
2023/10/24 11:38:14;;;;;;;19.40;15.10;;;11.50;1.00;;;;;;5054570;28;20445;-63
2023/10/24 11:40:41;;;;;;;20.00;16.57;;;11.50;1.00;;;;;;5053306;28;20278;-64
2023/10/24 11:43:08;;;;;;;19.73;16.97;;;11.50;1.00;;;;;;5054735;28;20167;-63
2023/10/24 11:45:38;;;;;;;24.53;16.10;;;11.50;1.00;;;;;;5053961;28;20402;-62
2023/10/24 11:48:04;;;;;;;16.73;14.93;;;11.50;1.00;;;;;;5054471;28;20401;-63
2023/10/24 11:50:46;;;;;;;20.80;16.10;;;11.50;1.00;;;;;;5054139;28;20384;-63
2023/10/24 11:53:20;;;;;;;22.43;16.13;;;11.60;1.00;;;;;;5054200;28;20379;-66
2023/10/24 11:55:50;;;;;;;21.03;16.00;;;11.60;1.00;;;;;;5053835;28;20466;-63
2023/10/24 11:58:16;;;;;;;20.00;16.30;;;11.60;1.00;;;;;;5054391;28;20459;-64
2023/10/24 12:00:45;;;;;;;22.77;16.00;;;11.60;1.00;;;;;;5054476;28;20476;-64
2023/10/24 12:03:11;;;;;;;17.93;15.87;;;11.60;1.00;;;;;;5054534;28;20372;-63
2023/10/24 12:05:49;;;;;;;21.80;16.90;;;11.60;1.00;;;;;;5053141;28;20396;-64
2023/10/24 12:08:21;;;;;;;20.67;17.47;;;11.70;1.00;;;;;;5038804;28;20441;-66
2023/10/24 12:10:53;;;;;;;17.77;15.93;;;11.70;1.00;;;;;;5033796;28;20377;-66
2023/10/24 12:13:20;;;;;;;17.10;15.30;;;11.80;1.00;;;;;;5034135;28;20402;-63
2023/10/24 12:15:46;;;;;;;21.53;16.37;;;11.80;1.00;;;;;;5032028;28;20485;-63
2023/10/24 12:18:12;;;;;;;19.17;15.00;;;11.70;1.00;;;;;;5033940;28;20514;-63
2023/10/24 12:20:38;;;;;;;17.80;15.10;;;11.70;1.00;;;;;;5034016;28;20442;-63
2023/10/24 12:23:04;;;;;;;20.67;16.50;;;11.70;1.00;;;;;;5033192;28;20168;-63
2023/10/24 12:25:30;;;;;;;19.63;15.00;;;11.80;1.00;;;;;;5032016;28;20175;-63
2023/10/24 12:27:57;;;;;;;22.80;15.87;;;11.70;1.00;;;;;;5052409;28;20218;-63
2023/10/24 12:30:23;;;;;;;22.53;16.10;;;11.80;1.00;;;;;;5053622;28;20459;-64
2023/10/24 12:32:48;;;;;;;26.10;17.43;;;11.80;1.00;;;;;;5053479;28;20921;-63
2023/10/24 12:35:14;;;;;;;18.80;15.00;;;11.80;1.00;;;;;;5051856;28;20233;-64
2023/10/24 12:37:40;;;;;;;25.17;17.43;;;11.80;1.00;;;;;;5053477;28;20195;-62
2023/10/24 12:40:06;;;;;;;19.23;16.37;;;11.80;1.00;;;;;;5053876;28;20163;-63
2023/10/24 12:42:35;;;;;;;21.50;16.93;;;11.80;1.00;;;;;;5053647;28;20163;-64
2023/10/24 12:45:01;;;;;;;22.10;15.37;;;11.80;1.00;;;;;;5052428;28;20376;-63